Frej — SBPT — position and weather

sailwx.info

Track history (hours):
 
Tides and Currents Weather Stations Pressure Air Temp Water Temp Dewpoint Dewpoint Depression Visibility Wind Speed Wind Dir Waves Ship Positions

Frej

Last reported at 2018-Jan-20 12:00 UTC. Time now 2018-Jan-20 13:23 UTC.
Position N 65°36' E 022°12'.

Length 108 m; draft 7.2 m.

Type: Other ship. MMSI: 265068000.

Wind from 030 at 4 knots

Barometer 1009.8 mb
Air temperature -13.5 ° C
Water temperature 0.7 ° C

Date/timePositionNaut miles runAvg speedWind from/ knotsBaromVisibWave heightAir tempDewpointWater temp
2018-Jan-20 12:00N 65°36' E 022°12'0 0.0 030 / 41009.8 -13.5 0.7
2018-Jan-20 10:00N 65°36' E 022°12'0 0.0 030 / 41010.1 -13.7 0.7
2018-Jan-20 09:00N 65°36' E 022°12'0 0.0 010 / 61010.0 -13.4 0.7
2018-Jan-20 06:00N 65°36' E 022°12'0 0.0 360 / 81009.2 -14.5 0.7
2018-Jan-20 05:00N 65°36' E 022°12'0 0.0 050 / 41009.1 -14.4 0.7
2018-Jan-20 03:00N 65°36' E 022°12'0 0.0 010 / 61008.9 -14.7 0.7
2018-Jan-20 01:00N 65°36' E 022°12'0 0.0 360 / 61008.8 -14.7 0.7
2018-Jan-20 00:00N 65°36' E 022°12'0 0.0 040 / 81008.6 -14.1 0.7
2018-Jan-19 21:00N 65°36' E 022°12'0 0.0 1007.5 -14.5 0.7
2018-Jan-19 19:00N 65°36' E 022°12'0 0.0 350 / 81006.5 -14.8 0.7
2018-Jan-19 18:00N 65°36' E 022°12'0 0.0 010 / 41006.3 -14.2 0.7
2018-Jan-19 13:00N 65°36' E 022°12'0 0.0 350 / 81004.2 -12.7 0.7
2018-Jan-19 12:00N 65°36' E 022°12'0 0.0 1003.8 -12.6 0.7
2018-Jan-19 09:00N 65°36' E 022°12'0 0.0 010 / 81002.6 -12.3 0.6
2018-Jan-19 08:00N 65°36' E 022°12'0 0.0 020 / 61002.2 -11.4 0.7
2018-Jan-19 07:00N 65°36' E 022°12'0 0.0 020 / 101001.6 -10.6 0.7
2018-Jan-19 06:00N 65°36' E 022°12'0 0.0 010 / 81001.3 -9.9 0.6
2018-Jan-19 03:00N 65°36' E 022°12'0 0.0 030 / 81000.4 -9.1 0.6
2018-Jan-19 00:00N 65°36' E 022°12'0 0.0 040 / 61000.3 -8.1 0.6
2018-Jan-18 23:00N 65°36' E 022°12'0 0.0 060 / 81000.1 -7.7 0.7
2018-Jan-18 22:00N 65°36' E 022°12'0 0.0 080 / 81000.1 -7.2 0.7
2018-Jan-18 21:00N 65°36' E 022°12'0 0.0 070 / 171004.0 -6.3 0.7
2018-Jan-18 19:00N 65°36' E 022°12'0 0.0 020 / 41003.9 -6.4 0.7
2018-Jan-18 18:00N 65°36' E 022°12'0 0.0 060 / 81003.7 -6.2 0.7
2018-Jan-18 15:00N 65°36' E 022°12'0 0.0 050 / 41003.6 -6.1 0.7
2018-Jan-18 12:00N 65°36' E 022°12'0 0.0 040 / 14100.0 -8.9 0.6
2018-Jan-18 09:00N 65°36' E 022°12'0 0.0 030 / 81000.8 -11.5 0.7
2018-Jan-18 06:00N 65°36' E 022°12'0 0.0 030 / 141000.9 -12.5 0.7
2018-Jan-18 03:00N 65°36' E 022°12'0 0.0 070 / 101001.5 -10.2 0.6
2018-Jan-18 00:00N 65°36' E 022°12'0 0.0 110 / 41005.5 -7.0 0.6
2018-Jan-17 21:00N 65°36' E 022°12'0 0.0 140 / 101005.3 -6.9 0.7
2018-Jan-17 18:00N 65°36' E 022°12'0 0.0 140 / 81004.8 -6.9 0.6
2018-Jan-17 15:00N 65°36' E 022°12'0 0.0 140 / 191004.5 -5.9 0.7
2018-Jan-17 12:00N 65°36' E 022°12'0 0.0 140 / 101005.0 -7.0 0.6
2018-Jan-17 09:00N 65°36' E 022°12'0 0.0 150 / 171004.9 -6.4 0.7
2018-Jan-17 06:00N 65°36' E 022°12'0 0.0 140 / 141003.6 -5.8 0.6
2018-Jan-17 03:00N 65°36' E 022°12'0 0.0 150 / 141003.1 -5.3 0.7
2018-Jan-17 00:00N 65°36' E 022°12'0 0.0 140 / 141002.6 -4.7 0.7
2018-Jan-16 21:00N 65°36' E 022°12'0 0.0 160 / 161001.9 -5.0 0.7
2018-Jan-16 06:00N 65°36' E 022°12'0 0.0 150 / 311005.0 -5.8 0.7
2018-Jan-16 05:00N 65°36' E 022°12'0 0.0 150 / 291005.2 -5.6 0.7
2018-Jan-16 04:00N 65°36' E 022°12'0 0.0 150 / 291005.9 -5.4 0.7
2018-Jan-16 00:00N 65°36' E 022°12'0 0.0 160 / 311009.6 -4.5 0.8
2018-Jan-15 17:00N 65°36' E 022°12'0 0.0 170 / 231013.0 -2.7 0.8
2018-Jan-15 16:00N 65°36' E 022°12'0 0.0 170 / 331013.8 -2.5 0.8
2018-Jan-15 15:00N 65°36' E 022°12'0 0.0 180 / 271014.7 -2.4 0.8
2018-Jan-15 13:00N 65°36' E 022°12'0 0.0 170 / 331015.7 -2.1 0.8
2018-Jan-15 12:00N 65°36' E 022°12'0 0.0 180 / 271016.5 -2.1 0.9
2018-Jan-15 11:00N 65°36' E 022°12'0 0.0 190 / 311017.1 -2.0 0.8
2018-Jan-15 10:00N 65°36' E 022°12'0 0.0 180 / 311017.4 -1.7 0.8
2018-Jan-15 09:00N 65°36' E 022°12'0 0.0 180 / 311017.9 -1.4 0.8
2018-Jan-15 08:00N 65°36' E 022°12'0 0.0 190 / 311017.7 -1.1 0.8
2018-Jan-15 07:00N 65°36' E 022°12'0 0.0 170 / 251017.7 -1.0 0.8
2018-Jan-15 06:00N 65°36' E 022°12'0 0.0 190 / 311018.1 -0.5 0.8
2018-Jan-15 05:00N 65°36' E 022°12'0 0.0 190 / 251018.7 -0.6 0.8
2018-Jan-15 04:00N 65°36' E 022°12'0 0.0 190 / 171019.4 -0.5 0.8
2018-Jan-15 03:00N 65°36' E 022°12'0 0.0 200 / 191019.8 -0.4 0.8
2018-Jan-15 02:00N 65°36' E 022°12'0 0.0 190 / 271020.4 -0.2 0.8
2018-Jan-15 01:00N 65°36' E 022°12'0 0.0 190 / 211021.2 -0.4 0.8
2018-Jan-15 00:00N 65°36' E 022°12'0 0.0 190 / 231022.1 -0.9 0.8
2018-Jan-14 23:00N 65°36' E 022°12'0 0.0 190 / 271022.4 -0.5 0.8
2018-Jan-14 22:00N 65°36' E 022°12'0 0.0 200 / 231023.0 -0.5 0.8
2018-Jan-14 21:00N 65°36' E 022°12'0 0.0 200 / 231023.9 -1.4 0.8
2018-Jan-14 20:00N 65°36' E 022°12'0 0.0 190 / 251024.7 -2.1 0.8
2018-Jan-14 19:00N 65°36' E 022°12'0 0.0 190 / 331025.1 -1.3 0.9
2018-Jan-14 18:00N 65°36' E 022°12'0 0.0 190 / 251025.6 -1.1 0.8
2018-Jan-14 17:00N 65°36' E 022°12'0 0.0 190 / 161026.4 -1.4 0.8
2018-Jan-14 16:00N 65°36' E 022°12'0 0.0 190 / 211027.3 -1.8 0.9
2018-Jan-14 15:00N 65°36' E 022°12'0 0.0 190 / 141028.1 -3.1 0.8
2018-Jan-14 14:00N 65°36' E 022°12'0 0.0 130 / 41029.0 -6.0 0.9
2018-Jan-14 13:00N 65°36' E 022°12'0 0.0 140 / 21030.2 -6.9 0.8
2018-Jan-14 12:00N 65°36' E 022°12'0 0.0 310 / 21030.8 -7.1 0.9
2018-Jan-14 11:00N 65°36' E 022°12'0 0.0 280 / 41027.2 -7.2 0.8
2018-Jan-14 10:00N 65°36' E 022°12'0 0.0 250 / 81031.5 -6.2 0.8
2018-Jan-14 09:00N 65°36' E 022°12'0 0.0 210 / 121031.2 -5.3 0.9
2018-Jan-14 08:00N 65°36' E 022°12'0 0.0 200 / 161031.4 -5.3 0.9
2018-Jan-14 06:00N 65°36' E 022°12'0 0.0 200 / 41031.7 -6.5 0.8
2018-Jan-14 03:00N 65°36' E 022°12'0 0.0 190 / 61033.2 -7.0 0.9
2018-Jan-14 00:00N 65°36' E 022°12'21 0.6 200 / 191030.3 -8.4 0.9
2018-Jan-12 15:00N 65°24' E 022°54'1918.7 270 / 121034.0 -2.8 0.6
2018-Jan-12 14:00N 65°06' E 022°42'5 5.1 240 / 161034.1 -2.9 0.6
2018-Jan-12 13:00N 65°06' E 022°30'1414.0 240 / 171034.2 -3.5 0.5
2018-Jan-12 12:00N 65°00' E 022°00'8 7.9 220 / 211034.1 -5.2 0.4
2018-Jan-12 11:00N 64°54' E 021°48'8 7.9 220 / 211034.2 -6.6 0.4
2018-Jan-12 10:00N 64°48' E 021°36'0 0.0 230 / 211030.0 -7.3 1.0
2018-Jan-12 09:00N 64°48' E 021°36'10 9.7 210 / 171029.7 -7.5 0.4
2018-Jan-12 08:00N 64°54' E 021°54'7 6.5 230 / 191033.7 -6.2 0.6
2018-Jan-12 07:00N 64°48' E 022°00'3 2.6 220 / 211033.4 -5.4 0.5
2018-Jan-12 06:00N 64°48' E 021°54'0 0.0 210 / 191033.1 -6.1 0.9
2018-Jan-12 05:00N 64°48' E 021°54'3 2.6 220 / 171033.1 -6.8 0.8
2018-Jan-12 04:00N 64°48' E 021°48'0 0.0 210 / 161033.2 -6.9 0.8
2018-Jan-12 03:00N 64°48' E 021°48'3 2.6 210 / 161028.7 -8.0 0.8
2018-Jan-12 02:00N 64°48' E 021°42'0 0.0 210 / 141028.6 -8.6 0.6
2018-Jan-12 01:00N 64°48' E 021°42'0 0.0 220 / 141028.5 -8.2 0.4
2018-Jan-12 00:00N 64°48' E 021°42'3 2.6 210 / 141028.3 -8.7 0.4
2018-Jan-11 23:00N 64°48' E 021°48'7 6.5 230 / 171028.1 -8.3 1.0
2018-Jan-11 22:00N 64°54' E 021°42'7 6.5 220 / 231027.2 -9.8 0.3
2018-Jan-11 21:00N 64°48' E 021°48'6 6.0 230 / 161027.7 -8.6 1.0
2018-Jan-11 20:00N 64°42' E 021°48'3 2.6 210 / 191027.4 -8.8 0.9
2018-Jan-11 19:00N 64°42' E 021°42'1212.3 220 / 171027.0 -9.7 0.8
2018-Jan-11 18:00N 64°54' E 021°48'1818.2 220 / 121026.7 -8.5 0.5
2018-Jan-11 17:00N 64°36' E 021°42'8 7.7 200 / 191030.2 -6.6 0.8
2018-Jan-11 16:00N 64°36' E 022°00'1817.6 200 / 231029.3 -4.4 2.0
2018-Jan-11 15:00N 64°48' E 022°30'1615.7 220 / 191029.5 -3.2 0.9
2018-Jan-11 14:00N 65°00' E 022°54'1212.3 190 / 121029.7 -2.4 1.2
2018-Jan-11 13:00N 65°12' E 022°48'6 6.0 220 / 191029.4 -4.4 0.5
2018-Jan-11 12:00N 65°18' E 022°48'23 7.8 220 / 81029.1 -5.4 0.5
2018-Jan-11 09:00N 65°36' E 022°12'0 0.0 320 / 41025.2 -11.2 0.7
2018-Jan-10 18:00N 65°36' E 022°12'   010 / 21021.3 -10.7 0.9
Track history (hours):
 
Tides and Currents Weather Stations Pressure Air Temp Water Temp Dewpoint Dewpoint Depression Visibility Wind Speed Wind Dir Waves Ship Positions

Frej

Last reported at 2018-Jan-20 12:00 UTC. Time now 2018-Jan-20 13:23 UTC.
Position N 65°36' E 022°12'.

Length 108 m; draft 7.2 m.

Type: Other ship. MMSI: 265068000.

Wind from 030 at 4 knots

Barometer 1009.8 mb
Air temperature -13.5 ° C
Water temperature 0.7 ° C

Date/timePositionNaut miles runAvg speedWind from/ knotsBaromVisibWave heightAir tempDewpointWater temp
2018-Jan-20 12:00N 65°36' E 022°12'0 0.0 030 / 41009.8 -13.5 0.7
2018-Jan-20 10:00N 65°36' E 022°12'0 0.0 030 / 41010.1 -13.7 0.7
2018-Jan-20 09:00N 65°36' E 022°12'0 0.0 010 / 61010.0 -13.4 0.7
2018-Jan-20 06:00N 65°36' E 022°12'0 0.0 360 / 81009.2 -14.5 0.7
2018-Jan-20 05:00N 65°36' E 022°12'0 0.0 050 / 41009.1 -14.4 0.7
2018-Jan-20 03:00N 65°36' E 022°12'0 0.0 010 / 61008.9 -14.7 0.7
2018-Jan-20 01:00N 65°36' E 022°12'0 0.0 360 / 61008.8 -14.7 0.7
2018-Jan-20 00:00N 65°36' E 022°12'0 0.0 040 / 81008.6 -14.1 0.7
2018-Jan-19 21:00N 65°36' E 022°12'0 0.0 1007.5 -14.5 0.7
2018-Jan-19 19:00N 65°36' E 022°12'0 0.0 350 / 81006.5 -14.8 0.7
2018-Jan-19 18:00N 65°36' E 022°12'0 0.0 010 / 41006.3 -14.2 0.7
2018-Jan-19 13:00N 65°36' E 022°12'0 0.0 350 / 81004.2 -12.7 0.7
2018-Jan-19 12:00N 65°36' E 022°12'0 0.0 1003.8 -12.6 0.7
2018-Jan-19 09:00N 65°36' E 022°12'0 0.0 010 / 81002.6 -12.3 0.6
2018-Jan-19 08:00N 65°36' E 022°12'0 0.0 020 / 61002.2 -11.4 0.7
2018-Jan-19 07:00N 65°36' E 022°12'0 0.0 020 / 101001.6 -10.6 0.7
2018-Jan-19 06:00N 65°36' E 022°12'0 0.0 010 / 81001.3 -9.9 0.6
2018-Jan-19 03:00N 65°36' E 022°12'0 0.0 030 / 81000.4 -9.1 0.6
2018-Jan-19 00:00N 65°36' E 022°12'0 0.0 040 / 61000.3 -8.1 0.6
2018-Jan-18 23:00N 65°36' E 022°12'0 0.0 060 / 81000.1 -7.7 0.7
2018-Jan-18 22:00N 65°36' E 022°12'0 0.0 080 / 81000.1 -7.2 0.7
2018-Jan-18 21:00N 65°36' E 022°12'0 0.0 070 / 171004.0 -6.3 0.7
2018-Jan-18 19:00N 65°36' E 022°12'0 0.0 020 / 41003.9 -6.4 0.7
2018-Jan-18 18:00N 65°36' E 022°12'0 0.0 060 / 81003.7 -6.2 0.7
2018-Jan-18 15:00N 65°36' E 022°12'0 0.0 050 / 41003.6 -6.1 0.7
2018-Jan-18 12:00N 65°36' E 022°12'0 0.0 040 / 14100.0 -8.9 0.6
2018-Jan-18 09:00N 65°36' E 022°12'0 0.0 030 / 81000.8 -11.5 0.7
2018-Jan-18 06:00N 65°36' E 022°12'0 0.0 030 / 141000.9 -12.5 0.7
2018-Jan-18 03:00N 65°36' E 022°12'0 0.0 070 / 101001.5 -10.2 0.6
2018-Jan-18 00:00N 65°36' E 022°12'0 0.0 110 / 41005.5 -7.0 0.6
2018-Jan-17 21:00N 65°36' E 022°12'0 0.0 140 / 101005.3 -6.9 0.7
2018-Jan-17 18:00N 65°36' E 022°12'0 0.0 140 / 81004.8 -6.9 0.6
2018-Jan-17 15:00N 65°36' E 022°12'0 0.0 140 / 191004.5 -5.9 0.7
2018-Jan-17 12:00N 65°36' E 022°12'0 0.0 140 / 101005.0 -7.0 0.6
2018-Jan-17 09:00N 65°36' E 022°12'0 0.0 150 / 171004.9 -6.4 0.7
2018-Jan-17 06:00N 65°36' E 022°12'0 0.0 140 / 141003.6 -5.8 0.6
2018-Jan-17 03:00N 65°36' E 022°12'0 0.0 150 / 141003.1 -5.3 0.7
2018-Jan-17 00:00N 65°36' E 022°12'0 0.0 140 / 141002.6 -4.7 0.7
2018-Jan-16 21:00N 65°36' E 022°12'0 0.0 160 / 161001.9 -5.0 0.7
2018-Jan-16 06:00N 65°36' E 022°12'0 0.0 150 / 311005.0 -5.8 0.7
2018-Jan-16 05:00N 65°36' E 022°12'0 0.0 150 / 291005.2 -5.6 0.7
2018-Jan-16 04:00N 65°36' E 022°12'0 0.0 150 / 291005.9 -5.4 0.7
2018-Jan-16 00:00N 65°36' E 022°12'0 0.0 160 / 311009.6 -4.5 0.8
2018-Jan-15 17:00N 65°36' E 022°12'0 0.0 170 / 231013.0 -2.7 0.8
2018-Jan-15 16:00N 65°36' E 022°12'0 0.0 170 / 331013.8 -2.5 0.8
2018-Jan-15 15:00N 65°36' E 022°12'0 0.0 180 / 271014.7 -2.4 0.8
2018-Jan-15 13:00N 65°36' E 022°12'0 0.0 170 / 331015.7 -2.1 0.8
2018-Jan-15 12:00N 65°36' E 022°12'0 0.0 180 / 271016.5 -2.1 0.9
2018-Jan-15 11:00N 65°36' E 022°12'0 0.0 190 / 311017.1 -2.0 0.8
2018-Jan-15 10:00N 65°36' E 022°12'0 0.0 180 / 311017.4 -1.7 0.8
2018-Jan-15 09:00N 65°36' E 022°12'0 0.0 180 / 311017.9 -1.4 0.8
2018-Jan-15 08:00N 65°36' E 022°12'0 0.0 190 / 311017.7 -1.1 0.8
2018-Jan-15 07:00N 65°36' E 022°12'0 0.0 170 / 251017.7 -1.0 0.8
2018-Jan-15 06:00N 65°36' E 022°12'0 0.0 190 / 311018.1 -0.5 0.8
2018-Jan-15 05:00N 65°36' E 022°12'0 0.0 190 / 251018.7 -0.6 0.8
2018-Jan-15 04:00N 65°36' E 022°12'0 0.0 190 / 171019.4 -0.5 0.8
2018-Jan-15 03:00N 65°36' E 022°12'0 0.0 200 / 191019.8 -0.4 0.8
2018-Jan-15 02:00N 65°36' E 022°12'0 0.0 190 / 271020.4 -0.2 0.8
2018-Jan-15 01:00N 65°36' E 022°12'0 0.0 190 / 211021.2 -0.4 0.8
2018-Jan-15 00:00N 65°36' E 022°12'0 0.0 190 / 231022.1 -0.9 0.8
2018-Jan-14 23:00N 65°36' E 022°12'0 0.0 190 / 271022.4 -0.5 0.8
2018-Jan-14 22:00N 65°36' E 022°12'0 0.0 200 / 231023.0 -0.5 0.8
2018-Jan-14 21:00N 65°36' E 022°12'0 0.0 200 / 231023.9 -1.4 0.8
2018-Jan-14 20:00N 65°36' E 022°12'0 0.0 190 / 251024.7 -2.1 0.8
2018-Jan-14 19:00N 65°36' E 022°12'0 0.0 190 / 331025.1 -1.3 0.9
2018-Jan-14 18:00N 65°36' E 022°12'0 0.0 190 / 251025.6 -1.1 0.8
2018-Jan-14 17:00N 65°36' E 022°12'0 0.0 190 / 161026.4 -1.4 0.8
2018-Jan-14 16:00N 65°36' E 022°12'0 0.0 190 / 211027.3 -1.8 0.9
2018-Jan-14 15:00N 65°36' E 022°12'0 0.0 190 / 141028.1 -3.1 0.8
2018-Jan-14 14:00N 65°36' E 022°12'0 0.0 130 / 41029.0 -6.0 0.9
2018-Jan-14 13:00N 65°36' E 022°12'0 0.0 140 / 21030.2 -6.9 0.8
2018-Jan-14 12:00N 65°36' E 022°12'0 0.0 310 / 21030.8 -7.1 0.9
2018-Jan-14 11:00N 65°36' E 022°12'0 0.0 280 / 41027.2 -7.2 0.8
2018-Jan-14 10:00N 65°36' E 022°12'0 0.0 250 / 81031.5 -6.2 0.8
2018-Jan-14 09:00N 65°36' E 022°12'0 0.0 210 / 121031.2 -5.3 0.9
2018-Jan-14 08:00N 65°36' E 022°12'0 0.0 200 / 161031.4 -5.3 0.9
2018-Jan-14 06:00N 65°36' E 022°12'0 0.0 200 / 41031.7 -6.5 0.8
2018-Jan-14 03:00N 65°36' E 022°12'0 0.0 190 / 61033.2 -7.0 0.9
2018-Jan-14 00:00N 65°36' E 022°12'21 0.6 200 / 191030.3 -8.4 0.9
2018-Jan-12 15:00N 65°24' E 022°54'1918.7 270 / 121034.0 -2.8 0.6
2018-Jan-12 14:00N 65°06' E 022°42'5 5.1 240 / 161034.1 -2.9 0.6
2018-Jan-12 13:00N 65°06' E 022°30'1414.0 240 / 171034.2 -3.5 0.5
2018-Jan-12 12:00N 65°00' E 022°00'8 7.9 220 / 211034.1 -5.2 0.4
2018-Jan-12 11:00N 64°54' E 021°48'8 7.9 220 / 211034.2 -6.6 0.4
2018-Jan-12 10:00N 64°48' E 021°36'0 0.0 230 / 211030.0 -7.3 1.0
2018-Jan-12 09:00N 64°48' E 021°36'10 9.7 210 / 171029.7 -7.5 0.4
2018-Jan-12 08:00N 64°54' E 021°54'7 6.5 230 / 191033.7 -6.2 0.6
2018-Jan-12 07:00N 64°48' E 022°00'3 2.6 220 / 211033.4 -5.4 0.5
2018-Jan-12 06:00N 64°48' E 021°54'0 0.0 210 / 191033.1 -6.1 0.9
2018-Jan-12 05:00N 64°48' E 021°54'3 2.6 220 / 171033.1 -6.8 0.8
2018-Jan-12 04:00N 64°48' E 021°48'0 0.0 210 / 161033.2 -6.9 0.8
2018-Jan-12 03:00N 64°48' E 021°48'3 2.6 210 / 161028.7 -8.0 0.8
2018-Jan-12 02:00N 64°48' E 021°42'0 0.0 210 / 141028.6 -8.6 0.6
2018-Jan-12 01:00N 64°48' E 021°42'0 0.0 220 / 141028.5 -8.2 0.4
2018-Jan-12 00:00N 64°48' E 021°42'3 2.6 210 / 141028.3 -8.7 0.4
2018-Jan-11 23:00N 64°48' E 021°48'7 6.5 230 / 171028.1 -8.3 1.0
2018-Jan-11 22:00N 64°54' E 021°42'7 6.5 220 / 231027.2 -9.8 0.3
2018-Jan-11 21:00N 64°48' E 021°48'6 6.0 230 / 161027.7 -8.6 1.0
2018-Jan-11 20:00N 64°42' E 021°48'3 2.6 210 / 191027.4 -8.8 0.9
2018-Jan-11 19:00N 64°42' E 021°42'1212.3 220 / 171027.0 -9.7 0.8
2018-Jan-11 18:00N 64°54' E 021°48'1818.2 220 / 121026.7 -8.5 0.5
2018-Jan-11 17:00N 64°36' E 021°42'8 7.7 200 / 191030.2 -6.6 0.8
2018-Jan-11 16:00N 64°36' E 022°00'1817.6 200 / 231029.3 -4.4 2.0
2018-Jan-11 15:00N 64°48' E 022°30'1615.7 220 / 191029.5 -3.2 0.9
2018-Jan-11 14:00N 65°00' E 022°54'1212.3 190 / 121029.7 -2.4 1.2
2018-Jan-11 13:00N 65°12' E 022°48'6 6.0 220 / 191029.4 -4.4 0.5
2018-Jan-11 12:00N 65°18' E 022°48'23 7.8 220 / 81029.1 -5.4 0.5
2018-Jan-11 09:00N 65°36' E 022°12'0 0.0 320 / 41025.2 -11.2 0.7
2018-Jan-10 18:00N 65°36' E 022°12'   010 / 21021.3 -10.7 0.9

Dump ship's entire track history